KSTL METAR and TAF weather

Enter ICAO airport designator

Example: see airport list

Station Type Date Time Source
KSTL METAR 2016/07/31 06:51 UTC NOAA

KSTL 310651Z 00000KT 10SM SCT055 24/19 A3000 RMK AO2 SLP145 T02440189

Station Type Date Time Source
KSTL Decoded METAR 2016/07/31 06:51 UTC NOAA

LAMBERT-ST LOUIS INTERNATIONAL AIRPORT , MO, United States (KSTL) 38-45N 90-22W 171M
Jul 31, 2016 - 02:51 AM EDT / 2016.07.31 0651 UTC
Wind: Calm:0
Visibility: 10 mile(s):0
Sky conditions: partly cloudy
Temperature: 75.9 F (24.4 C)
Dew Point: 66.0 F (18.9 C)
Relative Humidity: 71%
Pressure (altimeter): 30 in. Hg (1015 hPa)
ob: KSTL 310651Z 00000KT 10SM SCT055 24/19 A3000 RMK AO2 SLP145 T02440189
cycle: 7

Station Type Date Time Source
KSTL TAF 2016/07/31 06:21 UTC NOAA

TAF KSTL 310520Z 3106/0112 VRB03KT P6SM FEW250
FM311800 18005KT P6SM SCT050 BKN120
FM010200 13005KT P6SM BKN070